Time;durP1;ratioP1;P1;durP2;ratioP2;P2;SDS_P1;SDS_P2;PMS_P1;PMS_P2;Temp;Humidity;BMP_temperature;BMP_pressure;BME280_temperature;BME280_humidity;BME280_pressure;Samples;Min_cycle;Max_cycle;Signal;HPM_P1;HPM_P2
2022/03/17 00:02:15;;;;;;;32.10;25.30;;;6.40;99.90;;;;;;4993176;28;20261;-78
2022/03/17 00:04:42;;;;;;;28.33;23.83;;;6.30;99.90;;;;;;4993543;28;20234;-77
2022/03/17 00:07:09;;;;;;;30.08;25.52;;;6.30;99.90;;;;;;4992930;28;20226;-77
2022/03/17 00:09:35;;;;;;;30.98;25.50;;;6.30;99.90;;;;;;4993135;28;20245;-77
2022/03/17 00:12:03;;;;;;;32.15;24.17;;;6.30;99.90;;;;;;4992658;28;20226;-76
2022/03/17 00:14:29;;;;;;;32.28;25.95;;;6.30;99.90;;;;;;4992387;28;20288;-77
2022/03/17 00:16:57;;;;;;;31.88;24.95;;;6.30;99.90;;;;;;4992223;28;20246;-76
2022/03/17 00:19:25;;;;;;;31.65;25.58;;;6.30;99.90;;;;;;4992399;28;20674;-77
2022/03/17 00:21:52;;;;;;;29.63;23.73;;;6.30;99.90;;;;;;4993655;28;20211;-77
2022/03/17 00:24:19;;;;;;;30.67;24.75;;;6.20;99.90;;;;;;4994263;28;20219;-77
2022/03/17 00:26:46;;;;;;;27.73;23.55;;;6.20;99.90;;;;;;4991889;28;20225;-76
2022/03/17 00:29:12;;;;;;;29.38;24.35;;;6.20;99.90;;;;;;4992741;28;20229;-77
2022/03/17 00:31:39;;;;;;;27.80;23.35;;;6.20;99.90;;;;;;4992515;28;20203;-77
2022/03/17 00:34:08;;;;;;;26.90;22.35;;;6.20;99.90;;;;;;4992661;28;20207;-77
2022/03/17 00:36:35;;;;;;;28.48;22.38;;;6.10;99.90;;;;;;4992116;28;20729;-76
2022/03/17 00:39:04;;;;;;;29.25;23.02;;;6.10;99.90;;;;;;4992722;28;20199;-77
2022/03/17 00:41:31;;;;;;;29.80;23.65;;;6.10;99.90;;;;;;4992363;28;20203;-77
2022/03/17 00:43:57;;;;;;;26.77;21.90;;;6.10;99.90;;;;;;4994181;28;20210;-77
2022/03/17 00:46:24;;;;;;;28.95;22.42;;;6.10;99.90;;;;;;4996776;28;20206;-77
2022/03/17 00:48:51;;;;;;;27.35;23.73;;;6.10;99.90;;;;;;4996433;28;20231;-77
2022/03/17 00:51:19;;;;;;;28.45;23.58;;;6.10;99.90;;;;;;5002794;28;20207;-77
2022/03/17 00:53:46;;;;;;;30.45;24.35;;;6.00;99.90;;;;;;4996887;28;20206;-77
2022/03/17 00:56:13;;;;;;;27.88;21.30;;;6.00;99.90;;;;;;4996285;28;20223;-77
2022/03/17 00:58:40;;;;;;;24.98;21.00;;;5.90;99.90;;;;;;4995911;28;20199;-78
2022/03/17 01:01:08;;;;;;;26.92;22.75;;;5.80;99.90;;;;;;4996843;28;20203;-77
2022/03/17 01:03:34;;;;;;;29.25;22.85;;;5.80;99.90;;;;;;5001337;28;20217;-77
2022/03/17 01:06:01;;;;;;;27.90;22.60;;;5.80;99.90;;;;;;5000473;28;20599;-77
2022/03/17 01:08:29;;;;;;;29.30;22.30;;;5.80;99.90;;;;;;5001371;28;20227;-77
2022/03/17 01:10:56;;;;;;;30.00;23.40;;;5.80;99.90;;;;;;4999352;28;20211;-77
2022/03/17 01:13:23;;;;;;;24.50;20.65;;;5.80;99.90;;;;;;4996585;28;20210;-77
2022/03/17 01:15:49;;;;;;;29.13;22.98;;;5.80;99.90;;;;;;4996562;28;20227;-77
2022/03/17 01:18:16;;;;;;;28.65;23.15;;;5.80;99.90;;;;;;4996022;28;20211;-77
2022/03/17 01:20:44;;;;;;;29.48;23.27;;;5.80;99.90;;;;;;4996452;28;20214;-78
2022/03/17 01:23:11;;;;;;;29.33;24.00;;;5.80;99.90;;;;;;5000515;28;20204;-77
2022/03/17 01:25:39;;;;;;;28.63;24.77;;;5.90;99.90;;;;;;4997389;28;20234;-76
2022/03/17 01:28:06;;;;;;;29.48;22.73;;;5.90;99.90;;;;;;4995573;28;20250;-77
2022/03/17 01:30:35;;;;;;;30.67;24.33;;;5.80;99.90;;;;;;4998436;28;20199;-77
2022/03/17 01:33:01;;;;;;;27.23;22.05;;;5.80;99.90;;;;;;5005029;28;20205;-78
2022/03/17 01:35:28;;;;;;;28.50;22.10;;;5.80;99.90;;;;;;4996409;28;20591;-77
2022/03/17 01:37:55;;;;;;;28.55;22.70;;;5.80;99.90;;;;;;4995458;28;20211;-76
2022/03/17 01:40:22;;;;;;;27.85;21.58;;;5.80;99.90;;;;;;4995692;28;20203;-77
2022/03/17 01:42:50;;;;;;;26.00;21.58;;;5.80;99.90;;;;;;4995875;28;20207;-77
2022/03/17 01:45:16;;;;;;;29.95;24.80;;;5.80;99.90;;;;;;4995669;28;20227;-77
2022/03/17 01:47:44;;;;;;;30.83;24.05;;;5.80;99.90;;;;;;4995328;28;20666;-77
2022/03/17 01:50:14;;;;;;;29.17;22.88;;;5.80;99.90;;;;;;4997157;28;20210;-77
2022/03/17 01:52:41;;;;;;;28.80;22.77;;;5.80;99.90;;;;;;5013486;28;20203;-76
2022/03/17 01:55:09;;;;;;;26.75;22.10;;;5.70;99.90;;;;;;5016927;28;20490;-76
2022/03/17 01:57:38;;;;;;;29.88;23.40;;;5.80;99.90;;;;;;5019024;28;20255;-76
2022/03/17 02:00:11;;;;;;;29.42;22.73;;;5.70;99.90;;;;;;5019361;28;20230;-76
2022/03/17 02:02:38;;;;;;;25.08;21.55;;;5.70;99.90;;;;;;5019486;28;20263;-76
2022/03/17 02:05:05;;;;;;;27.88;22.67;;;5.70;99.90;;;;;;5019688;28;20211;-76
2022/03/17 02:07:32;;;;;;;29.55;23.77;;;5.70;99.90;;;;;;5018719;28;20218;-76
2022/03/17 02:10:00;;;;;;;31.45;24.15;;;5.70;99.90;;;;;;5018598;28;20199;-75
2022/03/17 02:15:12;;;;;;;30.70;24.05;;;5.70;99.90;;;;;;4995713;28;20230;-78
2022/03/17 02:17:41;;;;;;;30.45;24.27;;;5.60;99.90;;;;;;4995005;28;20208;-78
2022/03/17 02:20:10;;;;;;;29.33;23.80;;;5.70;99.90;;;;;;4995511;28;20671;-77
2022/03/17 02:22:42;;;;;;;29.98;22.85;;;5.70;99.90;;;;;;4994997;28;20222;-77
2022/03/17 02:27:55;;;;;;;30.85;23.50;;;5.70;99.90;;;;;;4994510;28;20644;-78
2022/03/17 02:30:23;;;;;;;27.75;22.27;;;5.80;99.90;;;;;;4995072;28;20583;-78
2022/03/17 02:32:50;;;;;;;31.38;22.95;;;5.80;99.90;;;;;;4995036;28;20221;-78
2022/03/17 02:35:20;;;;;;;29.65;23.48;;;5.80;99.90;;;;;;4995996;28;20227;-78
2022/03/17 02:37:47;;;;;;;25.33;21.48;;;5.80;99.90;;;;;;4998733;28;20210;-78
2022/03/17 02:40:15;;;;;;;26.40;22.58;;;5.80;99.90;;;;;;4996776;28;20211;-78
2022/03/17 02:42:42;;;;;;;27.63;22.38;;;5.80;99.90;;;;;;4994558;28;20206;-78
2022/03/17 02:45:11;;;;;;;28.52;22.90;;;5.80;99.90;;;;;;4994880;28;20223;-78
2022/03/17 02:47:39;;;;;;;28.42;23.35;;;5.80;99.90;;;;;;4994414;28;20242;-77
2022/03/17 02:50:06;;;;;;;31.17;24.20;;;5.80;99.90;;;;;;4995587;28;20238;-78
2022/03/17 02:52:33;;;;;;;29.88;24.10;;;5.80;99.90;;;;;;4995013;28;20322;-78
2022/03/17 02:55:00;;;;;;;28.73;23.15;;;5.80;99.90;;;;;;4994549;28;20227;-77
2022/03/17 02:57:28;;;;;;;27.58;23.00;;;5.80;99.90;;;;;;4992881;28;20211;-77
2022/03/17 02:59:55;;;;;;;27.48;22.45;;;5.80;99.90;;;;;;4994259;28;20210;-77
2022/03/17 03:02:23;;;;;;;29.00;23.60;;;5.80;99.90;;;;;;4994957;28;20583;-77
2022/03/17 03:04:50;;;;;;;30.95;24.10;;;5.80;99.90;;;;;;4995174;28;20234;-78
2022/03/17 03:07:17;;;;;;;28.92;23.45;;;5.80;99.90;;;;;;4993953;28;20626;-78
2022/03/17 03:09:43;;;;;;;29.38;22.75;;;5.80;99.90;;;;;;4994609;28;20250;-77
2022/03/17 03:12:10;;;;;;;27.30;22.25;;;5.80;99.90;;;;;;4994743;28;20217;-78
2022/03/17 03:14:39;;;;;;;28.70;22.85;;;5.80;99.90;;;;;;4994546;28;20227;-78
2022/03/17 03:17:06;;;;;;;27.95;23.00;;;5.80;99.90;;;;;;4994378;28;20250;-78
2022/03/17 03:19:33;;;;;;;32.63;25.15;;;5.80;99.90;;;;;;4994961;28;20206;-78
2022/03/17 03:21:59;;;;;;;28.10;23.42;;;5.80;99.90;;;;;;4994836;28;20225;-78
2022/03/17 03:24:26;;;;;;;30.15;24.00;;;5.90;99.90;;;;;;4994626;28;20222;-78
2022/03/17 03:26:53;;;;;;;29.42;22.00;;;5.90;99.90;;;;;;4993514;28;20203;-78
2022/03/17 03:29:22;;;;;;;28.52;23.27;;;5.90;99.90;;;;;;4993677;28;20231;-78
2022/03/17 03:31:51;;;;;;;27.90;23.27;;;6.00;99.90;;;;;;4994146;28;20207;-78
2022/03/17 03:34:18;;;;;;;25.48;20.58;;;6.00;99.90;;;;;;4993871;28;20226;-78
2022/03/17 03:39:28;;;;;;;27.27;21.05;;;6.00;99.90;;;;;;4993508;28;20710;-78
2022/03/17 03:41:55;;;;;;;25.15;21.38;;;6.00;99.90;;;;;;4993467;28;20199;-79
2022/03/17 03:44:22;;;;;;;28.27;23.63;;;6.00;99.90;;;;;;4993899;28;20640;-79
2022/03/17 03:46:50;;;;;;;27.85;21.42;;;5.90;99.90;;;;;;4992980;28;20211;-79
2022/03/17 03:49:17;;;;;;;29.17;22.90;;;6.00;99.90;;;;;;4993500;28;20227;-80
2022/03/17 03:51:44;;;;;;;29.13;23.40;;;6.00;99.90;;;;;;4993663;28;20207;-79
2022/03/17 03:54:19;;;;;;;29.55;22.83;;;6.00;99.90;;;;;;4994268;28;20206;-78
2022/03/17 03:56:48;;;;;;;31.13;24.85;;;6.10;99.90;;;;;;4992218;28;20212;-78
2022/03/17 03:59:19;;;;;;;29.58;23.38;;;6.10;99.90;;;;;;4995370;28;20214;-78
2022/03/17 04:01:46;;;;;;;32.70;24.55;;;6.10;99.90;;;;;;4993062;28;20207;-78
2022/03/17 04:04:17;;;;;;;33.20;23.55;;;6.20;99.90;;;;;;4993170;28;20230;-79
2022/03/17 04:06:46;;;;;;;30.10;22.85;;;6.20;99.90;;;;;;4992288;28;20206;-78
2022/03/17 04:09:13;;;;;;;29.25;23.08;;;6.20;99.90;;;;;;4993627;28;20223;-78
2022/03/17 04:11:40;;;;;;;28.33;22.40;;;6.20;99.90;;;;;;4993062;28;20238;-78
2022/03/17 04:14:07;;;;;;;27.13;22.25;;;6.20;99.90;;;;;;4993180;28;20203;-78
2022/03/17 04:16:34;;;;;;;30.05;23.05;;;6.20;99.90;;;;;;4993131;28;20297;-79
2022/03/17 04:19:01;;;;;;;29.00;22.35;;;6.20;99.90;;;;;;4992136;28;20206;-78
2022/03/17 04:21:30;;;;;;;28.25;22.10;;;6.20;99.90;;;;;;4992920;28;20206;-79
2022/03/17 04:23:57;;;;;;;29.00;22.77;;;6.20;99.90;;;;;;4993507;28;20214;-77
2022/03/17 04:26:23;;;;;;;28.13;22.38;;;6.20;99.90;;;;;;4993228;28;20210;-78
2022/03/17 04:28:50;;;;;;;27.25;22.65;;;6.20;99.90;;;;;;4992641;28;20231;-78
2022/03/17 04:31:17;;;;;;;28.25;23.33;;;6.20;99.90;;;;;;4993149;28;20210;-79
2022/03/17 04:33:44;;;;;;;30.00;24.77;;;6.20;99.90;;;;;;4993299;28;20203;-79
2022/03/17 04:36:11;;;;;;;38.25;24.98;;;6.20;99.90;;;;;;4995121;28;20245;-78
2022/03/17 04:38:39;;;;;;;28.85;22.80;;;6.20;99.90;;;;;;5002221;28;20198;-78
2022/03/17 04:41:06;;;;;;;39.70;25.45;;;6.20;99.90;;;;;;4997942;28;20222;-77
2022/03/17 04:43:33;;;;;;;33.13;25.08;;;6.10;99.90;;;;;;5001854;28;20198;-78
2022/03/17 04:46:00;;;;;;;30.08;24.10;;;6.20;99.90;;;;;;5002653;28;20258;-79
2022/03/17 04:48:27;;;;;;;32.33;24.13;;;6.20;99.90;;;;;;5000680;28;20229;-78
2022/03/17 04:51:12;;;;;;;29.08;22.95;;;6.20;99.90;;;;;;5032291;23;20960;-92
2022/03/17 04:54:16;;;;;;;30.75;24.50;;;6.20;99.90;;;;;;5011871;28;20264;-93
2022/03/17 04:56:43;;;;;;;29.95;23.38;;;6.20;99.90;;;;;;5012138;28;20198;-91
2022/03/17 04:59:10;;;;;;;31.08;22.80;;;6.20;99.90;;;;;;5013270;28;20194;-91
2022/03/17 05:01:37;;;;;;;30.70;23.50;;;6.20;99.90;;;;;;5024095;28;20214;-93
2022/03/17 05:04:04;;;;;;;31.63;23.90;;;6.30;99.90;;;;;;5023814;28;20266;-94
2022/03/17 05:06:31;;;;;;;30.42;23.60;;;6.20;99.90;;;;;;5013445;28;20191;-90
2022/03/17 05:08:59;;;;;;;27.90;22.77;;;6.30;99.90;;;;;;5012656;28;20218;-92
2022/03/17 05:11:27;;;;;;;26.85;21.92;;;6.20;99.90;;;;;;5014126;28;20219;-91
2022/03/17 05:13:54;;;;;;;28.75;23.77;;;6.20;99.90;;;;;;5013509;28;20202;-92
2022/03/17 05:16:20;;;;;;;28.42;23.20;;;6.30;99.90;;;;;;5012609;28;20214;-92
2022/03/17 05:18:48;;;;;;;29.63;23.73;;;6.20;99.90;;;;;;5012535;28;20552;-92
2022/03/17 05:21:44;;;;;;;29.63;24.08;;;6.30;99.90;;;;;;5014387;28;20746;-92
2022/03/17 05:24:11;;;;;;;32.00;23.33;;;6.30;99.90;;;;;;5017556;28;20226;-94
2022/03/17 05:26:42;;;;;;;32.00;28.60;;;6.30;99.90;;;;;;5035167;28;20458;-94
2022/03/17 05:29:09;;;;;;;30.80;24.67;;;6.30;99.90;;;;;;5036726;28;20225;-92
2022/03/17 05:31:36;;;;;;;30.92;23.02;;;6.30;99.90;;;;;;5040332;28;20237;-93
2022/03/17 05:34:04;;;;;;;28.92;22.30;;;6.30;99.90;;;;;;5040608;28;20194;-91
2022/03/17 05:36:31;;;;;;;31.80;23.73;;;6.30;99.90;;;;;;5040541;28;20229;-92
2022/03/17 05:38:57;;;;;;;30.20;21.90;;;6.40;99.90;;;;;;5040125;28;20183;-92
2022/03/17 05:41:28;;;;;;;25.10;20.92;;;6.30;99.90;;;;;;5040178;28;20261;-92
2022/03/17 05:43:57;;;;;;;26.75;21.40;;;6.40;99.90;;;;;;5040487;28;20186;-91
2022/03/17 05:46:25;;;;;;;24.45;21.35;;;6.30;99.90;;;;;;5040319;28;20591;-92
2022/03/17 05:48:53;;;;;;;28.70;22.58;;;6.40;99.90;;;;;;5040231;28;20219;-93
2022/03/17 05:51:19;;;;;;;28.35;21.65;;;6.40;99.90;;;;;;5040098;28;20221;-91
2022/03/17 05:53:52;;;;;;;26.55;21.20;;;6.40;99.90;;;;;;5039157;28;20263;-91
2022/03/17 05:56:28;;;;;;;29.38;21.35;;;6.30;99.90;;;;;;5039835;28;20189;-92
2022/03/17 05:58:56;;;;;;;26.42;22.58;;;6.30;99.90;;;;;;5049186;22;20232;-71
2022/03/17 06:01:23;;;;;;;28.50;22.63;;;6.40;99.90;;;;;;5032766;28;20691;-71
2022/03/17 06:03:50;;;;;;;28.35;23.58;;;6.40;99.90;;;;;;5032864;28;20206;-71
2022/03/17 06:06:17;;;;;;;27.77;21.15;;;6.40;99.90;;;;;;5032582;28;20233;-71
2022/03/17 06:08:43;;;;;;;29.75;23.48;;;6.40;99.90;;;;;;5032443;28;20660;-70
2022/03/17 06:11:10;;;;;;;28.45;23.65;;;6.50;99.90;;;;;;5032924;28;20198;-72
2022/03/17 06:13:37;;;;;;;28.95;21.90;;;6.50;99.90;;;;;;5032757;28;20201;-71
2022/03/17 06:16:06;;;;;;;29.33;23.08;;;6.50;99.90;;;;;;5032810;28;20569;-71
2022/03/17 06:18:32;;;;;;;33.88;23.27;;;6.50;99.90;;;;;;5032093;28;20673;-71
2022/03/17 06:20:59;;;;;;;29.67;24.55;;;6.50;99.90;;;;;;5032831;28;20563;-71
2022/03/17 06:23:26;;;;;;;33.15;23.42;;;6.50;99.90;;;;;;5032635;28;20233;-71
2022/03/17 06:25:52;;;;;;;28.77;23.25;;;6.50;99.90;;;;;;5032672;28;20225;-71
2022/03/17 06:28:19;;;;;;;29.63;23.15;;;6.50;99.90;;;;;;5031877;28;20209;-71
2022/03/17 06:30:46;;;;;;;30.17;23.27;;;6.60;99.90;;;;;;5032668;28;20222;-71
2022/03/17 06:33:14;;;;;;;28.73;23.08;;;6.60;99.90;;;;;;5032537;28;20201;-71
2022/03/17 06:35:41;;;;;;;29.20;22.92;;;6.60;99.90;;;;;;5032507;28;20279;-71
2022/03/17 06:38:08;;;;;;;28.52;22.23;;;6.70;99.90;;;;;;5031781;28;20201;-71
2022/03/17 06:40:36;;;;;;;28.90;22.42;;;6.70;99.90;;;;;;5032198;28;20198;-71
2022/03/17 06:43:03;;;;;;;30.20;23.10;;;6.70;99.90;;;;;;5031801;28;20210;-71
2022/03/17 06:45:30;;;;;;;30.85;24.73;;;6.80;99.90;;;;;;5032260;28;20226;-71
2022/03/17 06:47:57;;;;;;;32.67;24.90;;;6.80;99.90;;;;;;5031706;28;20209;-71
2022/03/17 06:50:25;;;;;;;32.63;25.80;;;6.70;99.90;;;;;;5032071;28;20233;-71
2022/03/17 06:52:52;;;;;;;33.47;25.20;;;6.80;99.90;;;;;;5032179;28;20198;-74
2022/03/17 06:55:20;;;;;;;31.63;24.77;;;6.80;99.90;;;;;;5031895;28;20898;-71
2022/03/17 06:57:46;;;;;;;32.35;24.83;;;6.90;99.90;;;;;;5031604;28;20202;-71
2022/03/17 07:00:15;;;;;;;32.13;26.52;;;6.90;99.90;;;;;;5031809;28;20206;-71
2022/03/17 07:02:42;;;;;;;35.35;25.13;;;7.00;99.90;;;;;;5032199;28;20221;-71
2022/03/17 07:05:09;;;;;;;34.22;27.42;;;7.00;99.90;;;;;;5031884;28;20645;-71
2022/03/17 07:07:38;;;;;;;34.67;28.15;;;7.00;99.90;;;;;;5031292;28;20553;-71
2022/03/17 07:10:06;;;;;;;30.70;24.38;;;7.10;99.90;;;;;;5031941;28;20222;-71
2022/03/17 07:12:33;;;;;;;35.90;26.65;;;7.10;99.90;;;;;;5031630;28;20206;-72
2022/03/17 07:15:00;;;;;;;32.63;24.10;;;7.20;99.90;;;;;;5031688;28;20244;-72
2022/03/17 07:17:26;;;;;;;34.20;25.70;;;7.30;99.90;;;;;;5031156;28;20202;-72
2022/03/17 07:19:59;;;;;;;30.48;24.75;;;7.30;99.90;;;;;;5031860;28;20233;-72
2022/03/17 07:22:27;;;;;;;38.92;27.58;;;7.40;99.90;;;;;;5029208;28;20217;-72
2022/03/17 07:24:56;;;;;;;32.65;25.55;;;7.50;99.90;;;;;;5029293;28;20210;-72
2022/03/17 07:27:24;;;;;;;30.90;26.63;;;7.60;99.90;;;;;;5034534;28;20274;-72
2022/03/17 07:29:52;;;;;;;31.60;26.25;;;7.70;99.90;;;;;;5038406;28;20225;-73
2022/03/17 07:32:19;;;;;;;34.92;26.80;;;7.80;99.90;;;;;;5042209;28;20212;-72
2022/03/17 07:34:47;;;;;;;29.33;23.92;;;7.80;99.90;;;;;;5046505;28;20224;-73
2022/03/17 07:37:18;;;;;;;30.30;24.48;;;7.90;99.90;;;;;;5045059;28;20198;-72
2022/03/17 07:39:46;;;;;;;31.23;25.00;;;7.90;99.90;;;;;;5044897;28;20212;-72
2022/03/17 07:42:15;;;;;;;32.80;26.88;;;8.10;99.90;;;;;;5040156;28;20580;-73
2022/03/17 07:44:42;;;;;;;31.85;25.00;;;8.20;99.90;;;;;;5037887;28;20225;-72
2022/03/17 07:47:09;;;;;;;35.20;26.70;;;8.20;99.90;;;;;;5034437;28;20209;-72
2022/03/17 07:49:37;;;;;;;28.30;24.73;;;8.20;99.90;;;;;;5033571;28;20233;-72
2022/03/17 07:52:05;;;;;;;34.60;26.80;;;8.30;99.90;;;;;;5030974;28;20208;-72
2022/03/17 07:54:32;;;;;;;34.53;26.95;;;8.30;99.90;;;;;;5028667;28;20218;-72
2022/03/17 07:56:59;;;;;;;32.75;26.95;;;8.30;99.90;;;;;;5029571;28;20288;-72
2022/03/17 07:59:29;;;;;;;31.08;25.83;;;8.30;99.90;;;;;;5029918;28;20293;-72
2022/03/17 08:01:57;;;;;;;30.88;25.73;;;8.30;99.90;;;;;;5029656;28;20255;-72
2022/03/17 08:04:24;;;;;;;33.80;28.05;;;8.40;99.90;;;;;;5029192;28;20226;-72
2022/03/17 08:06:53;;;;;;;35.55;27.30;;;8.30;99.90;;;;;;5029701;28;20202;-72
2022/03/17 08:09:20;;;;;;;29.73;24.50;;;8.30;99.90;;;;;;5029922;28;20720;-72
2022/03/17 08:11:48;;;;;;;30.40;23.92;;;8.30;99.90;;;;;;5031225;28;20229;-72
2022/03/17 08:14:16;;;;;;;31.95;24.83;;;8.20;99.90;;;;;;5029357;28;20209;-72
2022/03/17 08:16:45;;;;;;;31.70;25.25;;;8.20;99.90;;;;;;5029054;28;20209;-72
2022/03/17 08:19:12;;;;;;;31.70;25.08;;;8.30;99.90;;;;;;5029362;28;20398;-72
2022/03/17 08:21:39;;;;;;;30.77;26.15;;;8.20;99.90;;;;;;5030391;28;20221;-72
2022/03/17 08:24:07;;;;;;;34.17;26.13;;;8.20;99.90;;;;;;5029743;28;20244;-72
2022/03/17 08:26:34;;;;;;;33.35;26.88;;;8.20;99.90;;;;;;5028833;28;20209;-71
2022/03/17 08:29:01;;;;;;;35.92;27.40;;;8.10;99.90;;;;;;5029096;28;20201;-71
2022/03/17 08:31:28;;;;;;;36.80;26.15;;;8.10;99.90;;;;;;5028535;28;20225;-71
2022/03/17 08:33:57;;;;;;;33.50;26.20;;;8.10;99.90;;;;;;5028928;28;20229;-71
2022/03/17 08:36:24;;;;;;;36.97;28.48;;;8.20;99.90;;;;;;5028513;28;20206;-71
2022/03/17 08:38:51;;;;;;;31.02;25.35;;;8.30;99.90;;;;;;5027787;28;20228;-71
2022/03/17 08:41:17;;;;;;;30.73;25.45;;;8.40;99.90;;;;;;5028823;28;20573;-71
2022/03/17 08:43:44;;;;;;;32.75;25.73;;;8.40;99.90;;;;;;5029015;28;20208;-71
2022/03/17 08:51:41;;;;;;;32.35;26.23;;;8.40;99.90;;;;;;5028531;28;20204;-72
2022/03/17 08:54:09;;;;;;;32.90;26.35;;;8.30;99.90;;;;;;5028871;28;20209;-72
2022/03/17 08:56:37;;;;;;;32.42;27.48;;;8.40;99.90;;;;;;5028461;28;20293;-72
2022/03/17 08:59:04;;;;;;;36.28;27.40;;;8.30;99.90;;;;;;5028249;28;20296;-72
2022/03/17 09:01:31;;;;;;;32.80;25.92;;;8.40;99.90;;;;;;5028565;28;20201;-72
2022/03/17 09:04:00;;;;;;;32.72;25.30;;;8.40;99.90;;;;;;5028688;28;20628;-72
2022/03/17 09:06:27;;;;;;;30.27;24.25;;;8.50;99.90;;;;;;5032382;28;20260;-72
2022/03/17 09:08:53;;;;;;;32.60;25.83;;;8.60;99.90;;;;;;5031995;28;20201;-72
2022/03/17 09:11:20;;;;;;;37.65;26.92;;;8.70;99.90;;;;;;5034056;28;20225;-72
2022/03/17 09:13:48;;;;;;;32.40;26.10;;;8.80;99.90;;;;;;5034118;28;20205;-72
2022/03/17 09:16:15;;;;;;;38.47;26.30;;;8.80;99.90;;;;;;5033990;28;20275;-74
2022/03/17 09:18:42;;;;;;;31.10;25.42;;;8.90;99.90;;;;;;5033570;28;20228;-72
2022/03/17 09:21:10;;;;;;;30.20;24.42;;;9.00;99.90;;;;;;5034018;28;20202;-72
2022/03/17 09:23:37;;;;;;;32.70;25.75;;;9.10;99.90;;;;;;5033929;28;20209;-72
2022/03/17 09:26:04;;;;;;;28.13;23.50;;;9.20;99.90;;;;;;5033989;28;20233;-72
2022/03/17 09:28:30;;;;;;;33.58;24.75;;;9.30;99.90;;;;;;5033023;28;20210;-72
2022/03/17 09:30:57;;;;;;;27.83;23.23;;;9.50;99.90;;;;;;5033828;28;20226;-72
2022/03/17 09:33:25;;;;;;;30.05;24.10;;;9.60;99.90;;;;;;5033422;28;20206;-73
2022/03/17 09:35:52;;;;;;;25.75;21.15;;;9.60;99.90;;;;;;5033738;28;20657;-72
2022/03/17 09:38:20;;;;;;;25.95;21.85;;;9.70;99.90;;;;;;5032696;28;20202;-72
2022/03/17 09:40:47;;;;;;;26.25;22.17;;;9.80;99.90;;;;;;5033771;28;20416;-72
2022/03/17 09:43:21;;;;;;;27.08;22.90;;;9.90;99.90;;;;;;5033652;28;20202;-72
2022/03/17 09:45:51;;;;;;;26.52;21.27;;;10.10;99.90;;;;;;5033607;28;20222;-72
2022/03/17 09:48:20;;;;;;;29.02;24.15;;;10.20;99.90;;;;;;5032468;28;20563;-72
2022/03/17 09:50:48;;;;;;;31.83;24.58;;;10.30;99.90;;;;;;5033433;28;20225;-72
2022/03/17 09:53:14;;;;;;;28.77;24.20;;;10.30;99.90;;;;;;5032977;28;20206;-72
2022/03/17 09:55:44;;;;;;;29.83;24.60;;;10.30;99.90;;;;;;5033248;28;20693;-72
2022/03/17 09:58:11;;;;;;;29.75;24.33;;;10.30;99.90;;;;;;5032418;28;20651;-72
2022/03/17 10:00:52;;;;;;;30.75;24.05;;;10.30;99.90;;;;;;5033185;28;20204;-72
2022/03/17 10:03:21;;;;;;;26.45;22.77;;;10.30;99.90;;;;;;5032744;28;20198;-72
2022/03/17 10:05:49;;;;;;;25.25;22.50;;;10.40;99.90;;;;;;5033114;28;20574;-72
2022/03/17 10:08:17;;;;;;;29.63;22.90;;;10.40;99.90;;;;;;5026051;28;20214;-72
2022/03/17 10:10:45;;;;;;;25.73;22.92;;;10.40;99.90;;;;;;5031417;28;20222;-72
2022/03/17 10:13:14;;;;;;;26.77;22.98;;;10.40;99.90;;;;;;5031378;28;20532;-72
2022/03/17 10:15:41;;;;;;;26.95;23.08;;;10.40;99.90;;;;;;5029788;28;20250;-72
2022/03/17 10:18:20;;;;;;;25.60;22.02;;;10.40;99.90;;;;;;5030753;28;20208;-72
2022/03/17 10:20:47;;;;;;;26.50;22.83;;;10.50;99.90;;;;;;5012122;28;20207;-72
2022/03/17 10:23:14;;;;;;;25.73;22.40;;;10.50;99.90;;;;;;5011826;28;20206;-72
2022/03/17 10:25:41;;;;;;;27.20;22.63;;;10.50;99.90;;;;;;5011756;28;20729;-72
2022/03/17 10:28:16;;;;;;;30.00;23.55;;;10.60;99.90;;;;;;5011034;28;20221;-72
2022/03/17 10:30:43;;;;;;;30.98;22.73;;;10.70;99.90;;;;;;5012219;28;20226;-72
2022/03/17 10:33:14;;;;;;;27.30;22.45;;;10.70;99.90;;;;;;5011841;28;20202;-72
2022/03/17 10:35:45;;;;;;;28.35;22.35;;;10.80;99.90;;;;;;5011869;28;20244;-72
2022/03/17 10:38:13;;;;;;;26.75;22.55;;;10.90;99.90;;;;;;5010907;28;20202;-72
2022/03/17 10:40:40;;;;;;;26.75;21.73;;;11.00;99.90;;;;;;5011532;28;20202;-72
2022/03/17 10:43:20;;;;;;;29.80;23.00;;;11.10;99.90;;;;;;5012050;28;20206;-72
2022/03/17 10:45:47;;;;;;;27.85;22.05;;;11.20;99.90;;;;;;5012087;28;20230;-72
2022/03/17 10:48:14;;;;;;;28.77;23.05;;;11.30;99.90;;;;;;5011357;28;20210;-72
2022/03/17 10:50:42;;;;;;;25.92;22.58;;;11.40;99.90;;;;;;5011323;28;20225;-72
2022/03/17 11:06:09;;;;;;;27.33;21.05;;;11.90;99.90;;;;;;4902924;28;20266;-92
2022/03/17 11:08:51;;;;;;;26.38;22.40;;;11.90;99.90;;;;;;4958121;28;20302;-90
2022/03/17 11:14:29;;;;;;;26.38;19.83;;;12.00;99.90;;;;;;5036309;28;20245;-91
2022/03/17 11:19:52;;;;;;;28.45;20.42;;;11.90;99.90;;;;;;5039085;28;20215;-90
2022/03/17 11:22:36;;;;;;;26.10;19.45;;;11.80;99.90;;;;;;5037642;28;20277;-90
2022/03/17 11:25:29;;;;;;;26.40;18.95;;;11.70;99.90;;;;;;5036196;28;20233;-91
2022/03/17 11:34:48;;;;;;;24.85;19.48;;;11.50;99.90;;;;;;5042984;22;20236;-76
2022/03/17 11:37:27;;;;;;;24.40;18.98;;;11.40;99.90;;;;;;5050626;28;20640;-76
2022/03/17 11:39:57;;;;;;;24.25;18.45;;;11.30;99.90;;;;;;5051511;28;20205;-76
2022/03/17 11:42:35;;;;;;;28.45;21.05;;;11.30;99.90;;;;;;5051382;28;20197;-76
2022/03/17 11:45:08;;;;;;;25.25;19.48;;;11.40;99.90;;;;;;5051272;28;20224;-76
2022/03/17 11:47:37;;;;;;;22.85;20.25;;;11.30;99.90;;;;;;5050725;28;20208;-76
2022/03/17 11:50:23;;;;;;;28.15;20.05;;;11.30;99.90;;;;;;5051465;28;20228;-76
2022/03/17 11:52:56;;;;;;;24.13;19.63;;;11.30;99.90;;;;;;5051145;28;20212;-76
2022/03/17 11:55:35;;;;;;;28.05;19.88;;;11.30;99.90;;;;;;5050997;28;20236;-76
2022/03/17 11:58:24;;;;;;;25.90;20.10;;;11.30;99.90;;;;;;5050889;28;20208;-76
2022/03/17 12:00:53;;;;;;;29.48;20.60;;;11.20;99.90;;;;;;5051446;28;20197;-76
2022/03/17 12:03:28;;;;;;;28.75;22.63;;;11.20;99.90;;;;;;5051516;28;20215;-76
2022/03/17 12:06:06;;;;;;;27.13;20.60;;;11.20;99.90;;;;;;5051166;28;20244;-76
2022/03/17 12:08:39;;;;;;;28.67;22.85;;;11.20;99.90;;;;;;5050349;28;20207;-76
2022/03/17 12:11:09;;;;;;;29.23;22.25;;;11.20;99.90;;;;;;5051148;28;20243;-76
2022/03/17 12:13:36;;;;;;;29.77;23.48;;;11.20;99.90;;;;;;5051249;28;20204;-76
2022/03/17 12:16:04;;;;;;;29.88;23.85;;;11.10;99.90;;;;;;5051308;28;20256;-76
2022/03/17 12:18:51;;;;;;;31.40;23.30;;;11.10;99.90;;;;;;5050301;28;20204;-76
2022/03/17 12:21:18;;;;;;;33.00;25.40;;;11.10;99.90;;;;;;5050872;28;20213;-76
2022/03/17 12:23:49;;;;;;;35.42;27.52;;;11.10;99.90;;;;;;5051022;28;20201;-76
2022/03/17 12:26:21;;;;;;;37.28;27.20;;;11.10;99.90;;;;;;5050992;28;20270;-76
2022/03/17 12:28:49;;;;;;;33.97;26.40;;;11.10;99.90;;;;;;5050605;28;20209;-76
2022/03/17 12:31:16;;;;;;;36.08;27.33;;;11.20;99.90;;;;;;5050819;28;20224;-76
2022/03/17 12:33:44;;;;;;;39.03;27.75;;;11.30;99.90;;;;;;5050108;28;20217;-76
2022/03/17 12:36:14;;;;;;;41.70;29.05;;;11.30;99.90;;;;;;5051016;28;20232;-76
2022/03/17 12:38:41;;;;;;;36.63;28.25;;;11.30;99.90;;;;;;5049700;28;20208;-76
2022/03/17 12:41:14;;;;;;;37.08;28.55;;;11.10;99.90;;;;;;5050714;28;20204;-76
2022/03/17 12:43:40;;;;;;;41.55;30.00;;;11.10;99.90;;;;;;5050782;28;20205;-76
2022/03/17 12:46:07;;;;;;;37.05;29.05;;;11.10;99.90;;;;;;5051140;28;20737;-76
2022/03/17 12:48:34;;;;;;;37.22;27.80;;;11.10;99.90;;;;;;5050194;28;20216;-76
2022/03/17 12:51:07;;;;;;;40.70;29.10;;;11.10;99.90;;;;;;5050790;28;20225;-76
2022/03/17 12:53:36;;;;;;;37.08;28.80;;;11.10;99.90;;;;;;5050555;28;20205;-76
2022/03/17 12:56:02;;;;;;;40.33;29.27;;;11.20;99.90;;;;;;5050798;28;20225;-75
2022/03/17 12:58:40;;;;;;;37.35;28.13;;;11.20;99.90;;;;;;5049761;28;20292;-76
2022/03/17 13:01:07;;;;;;;40.08;29.15;;;11.20;99.90;;;;;;5048050;28;20575;-76
2022/03/17 13:03:34;;;;;;;37.65;28.30;;;11.20;99.90;;;;;;5049736;28;20221;-76
2022/03/17 13:08:45;;;;;;;38.03;28.77;;;11.10;99.90;;;;;;5048832;28;20216;-76
2022/03/17 13:16:44;;;;;;;37.60;28.38;;;11.00;99.90;;;;;;5049500;28;20282;-76
2022/03/17 13:19:10;;;;;;;37.88;27.58;;;10.90;99.90;;;;;;5050324;28;20688;-76
2022/03/17 13:21:38;;;;;;;38.05;28.13;;;11.00;99.90;;;;;;5050326;28;20201;-76
2022/03/17 13:24:20;;;;;;;39.03;28.65;;;11.10;99.90;;;;;;5088903;22;20213;-90
2022/03/17 13:27:00;;;;;;;46.30;31.92;;;11.10;99.90;;;;;;5035908;28;20289;-89
2022/03/17 13:29:46;;;;;;;36.90;28.63;;;11.00;99.90;;;;;;5035784;28;20201;-90